createdAt,value
2023-05-25T00:01:19.863Z,12.32
2023-05-25T00:03:46.430Z,11.73
2023-05-25T00:06:13.055Z,11.98
2023-05-25T00:08:40.443Z,12.35
2023-05-25T00:11:06.925Z,12.02
2023-05-25T00:13:33.349Z,12.30
2023-05-25T00:16:02.226Z,12.98
2023-05-25T00:18:28.671Z,12.35
2023-05-25T00:20:55.185Z,12.90
2023-05-25T00:23:21.781Z,12.30
2023-05-25T00:25:50.488Z,12.23
2023-05-25T00:28:16.976Z,13.15
2023-05-25T00:30:43.459Z,12.90
2023-05-25T00:33:10.703Z,12.57
2023-05-25T00:35:37.282Z,13.07
2023-05-25T00:38:03.787Z,12.13
2023-05-25T00:40:30.176Z,13.07
2023-05-25T00:42:57.766Z,11.45
2023-05-25T00:45:24.152Z,12.27
2023-05-25T00:47:54.647Z,12.23
2023-05-25T00:50:24.414Z,13.10
2023-05-25T00:52:53.951Z,12.50
2023-05-25T00:55:21.425Z,11.77
2023-05-25T00:57:51.162Z,12.88
2023-05-25T01:00:21.307Z,12.95
2023-05-25T01:02:52.584Z,13.27
2023-05-25T01:05:21.204Z,12.30
2023-05-25T01:07:47.830Z,12.70
2023-05-25T01:10:15.540Z,12.18
2023-05-25T01:12:42.264Z,11.95
2023-05-25T01:15:09.377Z,12.80
2023-05-25T01:17:38.175Z,11.80
2023-05-25T01:20:11.278Z,11.98
2023-05-25T01:22:48.058Z,12.43
2023-05-25T01:25:29.352Z,11.60
2023-05-25T01:28:07.620Z,12.15
2023-05-25T01:30:35.423Z,11.85
2023-05-25T01:33:02.337Z,11.68
2023-05-25T01:35:29.637Z,12.02
2023-05-25T01:37:58.210Z,11.90
2023-05-25T01:40:24.702Z,11.20
2023-05-25T01:42:51.089Z,11.43
2023-05-25T01:45:17.605Z,11.82
2023-05-25T01:47:53.181Z,11.55
2023-05-25T01:50:25.198Z,11.32
2023-05-25T01:52:56.293Z,11.55
2023-05-25T01:55:25.323Z,11.25
2023-05-25T01:57:53.323Z,11.32
2023-05-25T02:00:21.294Z,11.25
2023-05-25T02:02:47.979Z,11.75
2023-05-25T02:05:14.545Z,11.50
2023-05-25T02:07:41.010Z,11.00
2023-05-25T02:10:07.709Z,11.30
2023-05-25T02:12:34.164Z,10.77
2023-05-25T02:15:00.571Z,11.05
2023-05-25T02:17:28.037Z,11.07
2023-05-25T02:19:54.677Z,10.70
2023-05-25T02:22:21.430Z,10.05
2023-05-25T02:24:50.714Z,11.05
2023-05-25T02:27:19.632Z,10.60
2023-05-25T02:29:48.200Z,10.55
2023-05-25T02:32:14.615Z,10.48
2023-05-25T02:34:41.219Z,10.10
2023-05-25T02:37:07.681Z,10.10
2023-05-25T02:39:36.550Z,10.77
2023-05-25T02:42:02.980Z,10.65
2023-05-25T02:44:29.429Z,9.77
2023-05-25T02:46:55.844Z,10.27
2023-05-25T02:49:22.291Z,11.07
2023-05-25T02:51:48.715Z,9.95
2023-05-25T02:54:15.117Z,10.65
2023-05-25T02:56:42.520Z,9.95
2023-05-25T02:59:09.115Z,10.05
2023-05-25T03:01:35.536Z,10.35
2023-05-25T03:04:02.177Z,10.60
2023-05-25T03:06:28.772Z,10.05
2023-05-25T03:08:55.477Z,9.95
2023-05-25T03:11:22.595Z,10.45
2023-05-25T03:13:49.003Z,10.20
2023-05-25T03:16:15.466Z,9.95
2023-05-25T03:18:41.902Z,9.55
2023-05-25T03:21:08.276Z,9.70
2023-05-25T03:23:34.721Z,9.85
2023-05-25T03:26:01.129Z,10.45
2023-05-25T03:28:27.610Z,9.88
2023-05-25T03:30:53.994Z,9.70
2023-05-25T03:33:20.404Z,10.07
2023-05-25T03:35:47.049Z,9.60
2023-05-25T03:38:16.010Z,9.52
2023-05-25T03:40:42.429Z,10.40
2023-05-25T03:43:08.845Z,10.00
2023-05-25T03:45:35.342Z,10.25
2023-05-25T03:48:01.794Z,9.57
2023-05-25T03:50:28.238Z,9.82
2023-05-25T03:52:54.683Z,10.07
2023-05-25T03:55:21.107Z,10.00
2023-05-25T03:57:47.567Z,9.57
2023-05-25T04:00:14.326Z,9.77
2023-05-25T04:02:40.951Z,9.05
2023-05-25T04:05:08.091Z,8.20
2023-05-25T04:07:36.965Z,8.23
2023-05-25T04:10:03.943Z,8.35
2023-05-25T04:12:30.375Z,8.38
2023-05-25T04:14:56.833Z,8.02
2023-05-25T04:17:25.036Z,8.20
2023-05-25T04:19:52.202Z,7.75
2023-05-25T04:22:18.826Z,7.53
2023-05-25T04:24:45.770Z,7.47
2023-05-25T04:27:12.342Z,7.70
2023-05-25T04:29:38.750Z,7.55
2023-05-25T04:32:05.547Z,7.22
2023-05-25T04:34:33.840Z,6.68
2023-05-25T04:37:05.207Z,6.72
2023-05-25T04:39:32.615Z,6.28
2023-05-25T04:41:59.239Z,6.05
2023-05-25T04:44:25.732Z,6.00
2023-05-25T04:46:53.645Z,6.30
2023-05-25T04:49:21.442Z,5.90
2023-05-25T04:51:50.340Z,6.22
2023-05-25T04:54:16.887Z,6.00
2023-05-25T04:56:43.511Z,6.35
2023-05-25T04:59:10.080Z,6.00
2023-05-25T05:01:40.715Z,5.85
2023-05-25T05:04:08.362Z,5.20
2023-05-25T05:06:35.083Z,6.53
2023-05-25T05:09:01.622Z,6.05
2023-05-25T05:11:28.374Z,5.45
2023-05-25T05:13:55.560Z,5.60
2023-05-25T05:16:22.248Z,5.50
2023-05-25T05:18:48.793Z,5.97
2023-05-25T05:21:15.403Z,5.40
2023-05-25T05:23:44.985Z,5.65
2023-05-25T05:26:11.894Z,5.03
2023-05-25T05:28:38.363Z,5.10
2023-05-25T05:31:04.841Z,5.35
2023-05-25T05:33:31.424Z,5.00
2023-05-25T05:35:58.010Z,5.13
2023-05-25T05:38:24.414Z,5.57
2023-05-25T05:40:50.972Z,5.40
2023-05-25T05:43:19.793Z,5.00
2023-05-25T05:45:46.480Z,5.07
2023-05-25T05:48:13.327Z,5.38
2023-05-25T05:50:42.109Z,5.85
2023-05-25T05:53:09.863Z,5.55
2023-05-25T05:55:36.396Z,5.35
2023-05-25T05:58:02.796Z,5.22
2023-05-25T06:00:29.250Z,5.45
2023-05-25T06:02:56.128Z,5.07
2023-05-25T06:05:23.352Z,5.20
2023-05-25T06:07:49.842Z,5.43
2023-05-25T06:10:16.288Z,6.00
2023-05-25T06:12:42.717Z,5.85
2023-05-25T06:15:11.675Z,5.78
2023-05-25T06:17:38.151Z,5.65
2023-05-25T06:20:05.407Z,5.85
2023-05-25T06:22:33.342Z,5.30
2023-05-25T06:24:59.835Z,5.45
2023-05-25T06:27:26.265Z,5.70
2023-05-25T06:29:52.672Z,5.10
2023-05-25T06:32:19.134Z,4.90
2023-05-25T06:34:47.839Z,4.82
2023-05-25T06:37:14.935Z,5.35
2023-05-25T06:39:43.151Z,4.95
2023-05-25T06:42:10.224Z,5.22
2023-05-25T06:44:36.748Z,4.93
2023-05-25T06:47:03.487Z,5.22
2023-05-25T06:49:30.421Z,5.50
2023-05-25T06:51:56.848Z,5.60
2023-05-25T06:54:23.223Z,5.28
2023-05-25T06:56:49.707Z,5.25
2023-05-25T06:59:16.254Z,5.28
2023-05-25T07:01:42.699Z,4.70
2023-05-25T07:04:09.172Z,5.60
2023-05-25T07:06:36.522Z,5.28
2023-05-25T07:09:05.401Z,5.85
2023-05-25T07:11:34.298Z,4.95
2023-05-25T07:14:00.946Z,4.82
2023-05-25T07:16:29.899Z,5.45
2023-05-25T07:18:58.564Z,6.03
2023-05-25T07:21:29.001Z,5.15
2023-05-25T07:23:55.796Z,5.63
2023-05-25T07:26:23.422Z,5.68
2023-05-25T07:28:49.861Z,5.53
2023-05-25T07:31:16.525Z,6.13
2023-05-25T07:33:43.273Z,5.85
2023-05-25T07:36:10.445Z,5.18
2023-05-25T07:38:37.111Z,6.32
2023-05-25T07:41:03.582Z,5.78
2023-05-25T07:43:30.117Z,6.43
2023-05-25T07:45:56.584Z,6.38
2023-05-25T07:48:23.010Z,6.47
2023-05-25T07:50:50.796Z,6.82
2023-05-25T07:53:18.729Z,7.05
2023-05-25T07:55:46.092Z,7.03
2023-05-25T07:58:12.764Z,5.93
2023-05-25T08:00:39.158Z,6.03
2023-05-25T08:03:05.776Z,7.03
2023-05-25T08:05:32.417Z,6.28
2023-05-25T08:07:58.886Z,6.22
2023-05-25T08:10:31.253Z,7.07
2023-05-25T08:12:58.989Z,7.28
2023-05-25T08:15:26.487Z,6.45
2023-05-25T08:17:53.034Z,6.40
2023-05-25T08:20:19.514Z,6.60
2023-05-25T08:22:46.025Z,6.90
2023-05-25T08:25:12.455Z,6.70
2023-05-25T08:27:39.005Z,6.20
2023-05-25T08:30:08.563Z,6.82
2023-05-25T08:32:35.096Z,6.88
2023-05-25T08:35:04.651Z,6.63
2023-05-25T08:37:34.291Z,6.95
2023-05-25T08:40:02.591Z,7.07
2023-05-25T08:42:29.164Z,7.50
2023-05-25T08:44:56.848Z,7.50
2023-05-25T08:47:25.908Z,7.18
2023-05-25T08:49:54.205Z,7.13
2023-05-25T08:52:26.868Z,6.53
2023-05-25T08:54:58.685Z,7.43
2023-05-25T08:57:40.816Z,7.10
2023-05-25T09:00:10.926Z,7.00
2023-05-25T09:02:37.569Z,6.80
2023-05-25T09:05:04.428Z,7.70
2023-05-25T09:07:33.271Z,6.75
2023-05-25T09:10:01.183Z,7.25
2023-05-25T09:12:32.286Z,7.50
2023-05-25T09:15:01.379Z,7.07
2023-05-25T09:17:30.800Z,7.32
2023-05-25T09:19:57.301Z,6.45
2023-05-25T09:22:23.818Z,6.20
2023-05-25T09:24:53.418Z,7.03
2023-05-25T09:27:22.676Z,7.10
2023-05-25T09:29:52.255Z,6.78
2023-05-25T09:32:19.251Z,7.32
2023-05-25T09:34:46.555Z,6.45
2023-05-25T09:37:14.199Z,6.25
2023-05-25T09:39:41.805Z,7.10
2023-05-25T09:42:10.906Z,6.55
2023-05-25T09:44:40.271Z,6.28
2023-05-25T09:47:07.025Z,6.40
2023-05-25T09:49:33.483Z,6.65
2023-05-25T09:52:00.297Z,6.75
2023-05-25T09:54:27.225Z,5.38
2023-05-25T09:56:54.122Z,5.32
2023-05-25T09:59:24.909Z,5.50
2023-05-25T10:01:53.141Z,5.55
2023-05-25T10:04:22.038Z,5.10
2023-05-25T10:06:54.343Z,5.13
2023-05-25T10:09:20.970Z,5.47
2023-05-25T10:11:48.089Z,5.50
2023-05-25T10:14:20.056Z,5.75
2023-05-25T10:16:50.070Z,5.63
2023-05-25T10:19:21.926Z,6.03
2023-05-25T10:21:57.925Z,6.38
2023-05-25T10:24:34.234Z,6.30
2023-05-25T10:27:07.800Z,7.05
2023-05-25T10:29:41.846Z,13.57
2023-05-25T10:32:08.701Z,6.60
2023-05-25T10:34:35.283Z,6.35
2023-05-25T10:37:03.035Z,6.28
2023-05-25T10:39:29.885Z,6.53
2023-05-25T10:41:56.323Z,5.90
2023-05-25T10:44:23.116Z,5.68
2023-05-25T10:46:52.120Z,6.68
2023-05-25T10:49:32.872Z,6.40
2023-05-25T10:52:02.404Z,6.22
2023-05-25T10:54:30.586Z,6.43
2023-05-25T10:57:09.741Z,6.40
2023-05-25T10:59:38.998Z,6.32
2023-05-25T11:02:09.287Z,6.47
2023-05-25T11:04:38.493Z,5.80
2023-05-25T11:07:08.287Z,5.68
2023-05-25T11:09:43.555Z,5.63
2023-05-25T11:12:22.495Z,5.00
2023-05-25T11:15:07.779Z,6.00
2023-05-25T11:17:44.021Z,6.57
2023-05-25T11:20:21.192Z,4.97
2023-05-25T11:22:52.270Z,5.85
2023-05-25T11:25:34.805Z,6.32
2023-05-25T11:28:10.679Z,6.07
2023-05-25T11:30:38.513Z,5.35
2023-05-25T11:33:08.006Z,5.40
2023-05-25T11:35:37.104Z,5.53
2023-05-25T11:38:08.115Z,5.25
2023-05-25T11:40:36.347Z,5.03
2023-05-25T11:43:04.788Z,5.10
2023-05-25T11:45:34.053Z,5.15
2023-05-25T11:48:03.690Z,5.25
2023-05-25T11:50:31.065Z,5.55
2023-05-25T11:52:57.600Z,4.55
2023-05-25T11:55:26.439Z,4.55
2023-05-25T11:57:58.913Z,4.57
2023-05-25T12:00:27.028Z,4.90
2023-05-25T12:02:53.604Z,4.50
2023-05-25T12:05:20.293Z,4.68
2023-05-25T12:07:49.195Z,4.45
2023-05-25T12:10:16.538Z,4.05
2023-05-25T12:12:44.028Z,4.03
2023-05-25T12:15:11.716Z,4.53
2023-05-25T12:17:40.767Z,4.38
2023-05-25T12:20:09.698Z,4.50
2023-05-25T12:22:36.177Z,4.65
2023-05-25T12:25:04.850Z,4.95
2023-05-25T12:27:31.310Z,4.68
2023-05-25T12:30:01.491Z,5.13
2023-05-25T12:32:27.922Z,4.57
2023-05-25T12:35:04.423Z,4.28
2023-05-25T12:37:30.930Z,4.45
2023-05-25T12:40:00.420Z,4.22
2023-05-25T12:42:27.494Z,5.03
2023-05-25T12:44:54.946Z,5.38
2023-05-25T12:47:23.389Z,4.50
2023-05-25T12:49:54.080Z,4.75
2023-05-25T12:52:39.459Z,4.55
2023-05-25T12:55:27.570Z,4.45
2023-05-25T12:57:55.158Z,4.30
2023-05-25T13:00:22.306Z,4.70
2023-05-25T13:02:51.497Z,5.38
2023-05-25T13:05:19.009Z,4.60
2023-05-25T13:07:45.562Z,4.20
2023-05-25T13:10:17.743Z,4.57
2023-05-25T13:12:47.939Z,3.80
2023-05-25T13:15:15.275Z,4.72
2023-05-25T13:17:45.342Z,4.32
2023-05-25T13:20:13.206Z,3.80
2023-05-25T13:22:41.924Z,4.10
2023-05-25T13:25:11.292Z,4.20
2023-05-25T13:27:38.062Z,4.70
2023-05-25T13:30:06.132Z,4.43
2023-05-25T13:32:32.588Z,4.05
2023-05-25T13:35:01.724Z,4.30
2023-05-25T13:37:28.491Z,4.03
2023-05-25T13:39:55.004Z,3.97
2023-05-25T13:42:21.758Z,4.30
2023-05-25T13:44:48.541Z,4.20
2023-05-25T13:47:15.015Z,3.95
2023-05-25T13:49:41.458Z,4.22
2023-05-25T13:52:07.938Z,3.72
2023-05-25T13:54:34.406Z,3.72
2023-05-25T13:57:00.820Z,4.00
2023-05-25T13:59:27.689Z,3.65
2023-05-25T14:01:55.822Z,4.57
2023-05-25T14:04:22.697Z,3.63
2023-05-25T14:06:49.150Z,4.03
2023-05-25T14:09:18.008Z,4.20
2023-05-25T14:11:44.433Z,3.83
2023-05-25T14:14:23.214Z,3.50
2023-05-25T14:16:57.026Z,3.95
2023-05-25T14:19:23.571Z,4.57
2023-05-25T14:21:59.745Z,4.03
2023-05-25T14:24:36.382Z,3.90
2023-05-25T14:27:06.930Z,3.53
2023-05-25T14:29:35.528Z,3.33
2023-05-25T14:32:02.037Z,3.13
2023-05-25T14:34:28.815Z,3.33
2023-05-25T14:36:55.300Z,3.20
2023-05-25T14:39:21.741Z,3.50
2023-05-25T14:41:50.587Z,3.35
2023-05-25T14:44:19.467Z,3.28
2023-05-25T14:46:48.713Z,3.42
2023-05-25T14:49:16.816Z,3.20
2023-05-25T14:51:43.249Z,3.40
2023-05-25T14:54:11.305Z,3.17
2023-05-25T14:56:37.709Z,3.25
2023-05-25T14:59:04.162Z,3.42
2023-05-25T15:01:30.671Z,3.40
2023-05-25T15:03:57.277Z,3.38
2023-05-25T15:06:23.992Z,3.60
2023-05-25T15:08:50.543Z,3.20
2023-05-25T15:11:18.024Z,3.15
2023-05-25T15:13:44.590Z,3.42
2023-05-25T15:16:11.818Z,3.30
2023-05-25T15:18:40.805Z,3.78
2023-05-25T15:21:09.353Z,3.38
2023-05-25T15:23:35.842Z,3.38
2023-05-25T15:26:04.741Z,2.95
2023-05-25T15:28:31.370Z,3.42
2023-05-25T15:30:59.458Z,3.33
2023-05-25T15:33:43.504Z,3.78
2023-05-25T15:36:14.720Z,3.10
2023-05-25T15:38:42.972Z,3.90
2023-05-25T15:41:11.806Z,3.78
2023-05-25T15:43:40.602Z,3.70
2023-05-25T15:46:09.613Z,3.85
2023-05-25T15:48:36.035Z,3.67
2023-05-25T15:51:04.689Z,4.45
2023-05-25T15:53:31.076Z,3.35
2023-05-25T15:55:57.599Z,3.78
2023-05-25T15:58:23.992Z,3.90
2023-05-25T16:00:52.930Z,3.88
2023-05-25T16:03:19.547Z,3.58
2023-05-25T16:05:46.256Z,4.32
2023-05-25T16:08:15.142Z,3.70
2023-05-25T16:10:41.574Z,4.00
2023-05-25T16:13:08.069Z,3.92
2023-05-25T16:15:34.498Z,3.83
2023-05-25T16:18:01.346Z,3.70
2023-05-25T16:20:27.850Z,3.88
2023-05-25T16:22:54.311Z,3.50
2023-05-25T16:25:21.059Z,3.70
2023-05-25T16:27:49.632Z,3.47
2023-05-25T16:30:16.106Z,4.03
2023-05-25T16:32:44.789Z,4.00
2023-05-25T16:35:11.349Z,3.90
2023-05-25T16:37:40.298Z,3.92
2023-05-25T16:40:09.549Z,3.80
2023-05-25T16:42:35.992Z,4.22
2023-05-25T16:45:02.522Z,4.57
2023-05-25T16:47:31.364Z,3.97
2023-05-25T16:49:57.792Z,3.72
2023-05-25T16:52:24.241Z,4.43
2023-05-25T16:54:50.653Z,4.00
2023-05-25T16:57:17.068Z,4.47
2023-05-25T16:59:43.611Z,4.32
2023-05-25T17:02:10.112Z,3.78
2023-05-25T17:04:38.915Z,3.65
2023-05-25T17:07:05.346Z,3.75
2023-05-25T17:09:31.794Z,3.85
2023-05-25T17:12:01.180Z,4.15
2023-05-25T17:14:27.826Z,4.30
2023-05-25T17:16:54.245Z,4.03
2023-05-25T17:19:23.147Z,4.65
2023-05-25T17:21:49.548Z,4.15
2023-05-25T17:24:16.187Z,4.20
2023-05-25T17:26:46.396Z,4.15
2023-05-25T17:29:12.844Z,4.40
2023-05-25T17:31:39.287Z,4.03
2023-05-25T17:34:05.817Z,4.05
2023-05-25T17:36:32.368Z,4.10
2023-05-25T17:38:58.829Z,4.05
2023-05-25T17:41:27.709Z,4.18
2023-05-25T17:43:54.152Z,4.13
2023-05-25T17:46:23.083Z,4.00
2023-05-25T17:48:49.697Z,3.78
2023-05-25T17:51:17.455Z,4.07
2023-05-25T17:53:44.060Z,4.53
2023-05-25T17:56:10.797Z,4.03
2023-05-25T17:58:38.082Z,4.22
2023-05-25T18:01:05.218Z,4.38
2023-05-25T18:03:31.842Z,4.32
2023-05-25T18:05:58.468Z,4.25
2023-05-25T18:08:25.011Z,4.63
2023-05-25T18:10:52.874Z,4.63
2023-05-25T18:13:21.629Z,4.30
2023-05-25T18:15:48.127Z,4.00
2023-05-25T18:18:16.531Z,4.03
2023-05-25T18:20:43.121Z,4.70
2023-05-25T18:23:09.897Z,4.30
2023-05-25T18:25:36.402Z,4.78
2023-05-25T18:28:02.862Z,4.43
2023-05-25T18:30:29.334Z,4.32
2023-05-25T18:32:56.024Z,5.50
2023-05-25T18:35:22.475Z,6.90
2023-05-25T18:37:48.925Z,7.70
2023-05-25T18:40:17.789Z,7.65
2023-05-25T18:42:44.277Z,8.02
2023-05-25T18:45:10.843Z,10.23
2023-05-25T18:47:39.962Z,11.50
2023-05-25T18:50:07.102Z,13.68
2023-05-25T18:52:36.002Z,11.35
2023-05-25T18:55:02.414Z,8.93
2023-05-25T18:57:28.874Z,7.13
2023-05-25T18:59:57.839Z,7.72
2023-05-25T19:02:24.423Z,7.10
2023-05-25T19:04:51.007Z,6.90
2023-05-25T19:07:17.488Z,6.93
2023-05-25T19:09:44.069Z,7.45
2023-05-25T19:12:10.750Z,7.10
2023-05-25T19:14:37.317Z,6.65
2023-05-25T19:17:03.804Z,6.30
2023-05-25T19:19:30.277Z,7.50
2023-05-25T19:21:57.200Z,6.53
2023-05-25T19:24:26.073Z,5.90
2023-05-25T19:26:52.526Z,5.50
2023-05-25T19:29:19.162Z,4.47
2023-05-25T19:31:45.706Z,5.20
2023-05-25T19:34:14.696Z,5.25
2023-05-25T19:36:41.129Z,5.65
2023-05-25T19:39:07.582Z,5.38
2023-05-25T19:41:35.563Z,4.82
2023-05-25T19:44:01.994Z,5.15
2023-05-25T19:46:29.149Z,5.40
2023-05-25T19:48:57.690Z,5.53
2023-05-25T19:51:24.344Z,5.22
2023-05-25T19:53:52.085Z,6.25
2023-05-25T19:56:18.536Z,7.28
2023-05-25T19:58:47.520Z,7.00
2023-05-25T20:01:16.494Z,6.45
2023-05-25T20:03:44.565Z,7.57
2023-05-25T20:06:11.197Z,7.57
2023-05-25T20:08:37.831Z,7.13
2023-05-25T20:11:04.312Z,7.13
2023-05-25T20:13:30.851Z,7.60
2023-05-25T20:15:57.313Z,9.43
2023-05-25T20:18:24.070Z,8.02
2023-05-25T20:20:53.046Z,8.70
2023-05-25T20:23:19.785Z,7.43
2023-05-25T20:25:46.423Z,7.15
2023-05-25T20:28:13.119Z,7.20
2023-05-25T20:30:39.575Z,7.20
2023-05-25T20:33:07.291Z,8.85
2023-05-25T20:35:36.064Z,9.00
2023-05-25T20:38:02.581Z,9.27
2023-05-25T20:40:29.110Z,8.35
2023-05-25T20:42:56.133Z,8.75
2023-05-25T20:45:24.076Z,8.48
2023-05-25T20:48:03.816Z,8.75
2023-05-25T20:50:30.989Z,8.45
2023-05-25T20:52:57.595Z,7.55
2023-05-25T20:55:24.139Z,8.02
2023-05-25T20:57:50.832Z,7.13
2023-05-25T21:00:17.687Z,6.55
2023-05-25T21:02:44.240Z,7.30
2023-05-25T21:05:10.965Z,6.20
2023-05-25T21:07:37.442Z,6.32
2023-05-25T21:10:04.212Z,6.57
2023-05-25T21:12:30.614Z,6.75
2023-05-25T21:14:57.077Z,6.50
2023-05-25T21:17:23.529Z,6.45
2023-05-25T21:19:50.180Z,6.25
2023-05-25T21:22:19.050Z,6.40
2023-05-25T21:24:45.551Z,6.15
2023-05-25T21:27:12.189Z,6.50
2023-05-25T21:29:38.571Z,6.35
2023-05-25T21:32:05.118Z,6.63
2023-05-25T21:34:31.686Z,6.60
2023-05-25T21:36:58.262Z,7.10
2023-05-25T21:39:24.672Z,7.25
2023-05-25T21:41:51.089Z,7.55
2023-05-25T21:44:17.723Z,7.45
2023-05-25T21:46:44.240Z,7.15
2023-05-25T21:49:10.725Z,7.50
2023-05-25T21:51:37.166Z,7.25
2023-05-25T21:54:03.673Z,7.43
2023-05-25T21:56:30.105Z,7.40
2023-05-25T21:58:56.507Z,6.80
2023-05-25T22:01:23.359Z,6.72
2023-05-25T22:03:49.835Z,7.18
2023-05-25T22:06:18.769Z,7.15
2023-05-25T22:08:45.233Z,7.00
2023-05-25T22:11:11.662Z,7.22
2023-05-25T22:13:38.144Z,7.05
2023-05-25T22:16:04.628Z,7.20
2023-05-25T22:18:31.050Z,7.38
2023-05-25T22:20:57.517Z,6.70
2023-05-25T22:23:23.970Z,6.88
2023-05-25T22:25:52.793Z,7.07
2023-05-25T22:28:21.600Z,6.55
2023-05-25T22:30:48.206Z,6.47
2023-05-25T22:33:14.634Z,7.47
2023-05-25T22:35:41.029Z,7.53
2023-05-25T22:38:07.421Z,7.07
2023-05-25T22:40:33.871Z,7.40
2023-05-25T22:43:00.267Z,7.00
2023-05-25T22:45:26.690Z,7.20
2023-05-25T22:47:53.143Z,7.03
2023-05-25T22:50:19.565Z,7.18
2023-05-25T22:52:48.554Z,6.97
2023-05-25T22:55:17.168Z,6.78
2023-05-25T22:57:43.547Z,6.85
2023-05-25T23:00:10.290Z,7.28
2023-05-25T23:02:36.776Z,6.72
2023-05-25T23:05:03.386Z,6.82
2023-05-25T23:07:29.784Z,7.18
2023-05-25T23:09:56.173Z,7.30
2023-05-25T23:12:22.720Z,7.57
2023-05-25T23:14:49.235Z,6.88
2023-05-25T23:17:15.842Z,7.15
2023-05-25T23:19:44.656Z,7.22
2023-05-25T23:22:11.193Z,7.00
2023-05-25T23:24:37.622Z,6.65
2023-05-25T23:27:06.409Z,6.95
2023-05-25T23:29:35.180Z,7.00
2023-05-25T23:32:01.720Z,6.72
2023-05-25T23:34:28.245Z,6.78
2023-05-25T23:36:55.833Z,6.63
2023-05-25T23:39:22.250Z,6.43
2023-05-25T23:41:51.018Z,6.85
2023-05-25T23:44:17.383Z,6.78
2023-05-25T23:46:43.879Z,7.80
2023-05-25T23:49:12.823Z,7.10
2023-05-25T23:51:39.226Z,6.75
2023-05-25T23:54:09.504Z,6.60
2023-05-25T23:56:36.402Z,6.15
2023-05-25T23:59:02.814Z,6.70
